createdAt,value
2023-08-15T00:00:18.408Z,35.48
2023-08-15T00:01:22.772Z,35.45
2023-08-15T00:02:26.545Z,35.45
2023-08-15T00:03:30.465Z,35.47
2023-08-15T00:04:34.292Z,35.49
2023-08-15T00:05:39.024Z,35.51
2023-08-15T00:06:42.677Z,35.51
2023-08-15T00:07:46.345Z,35.51
2023-08-15T00:08:50.369Z,35.51
2023-08-15T00:09:54.093Z,35.53
2023-08-15T00:10:57.797Z,35.54
2023-08-15T00:12:01.514Z,35.52
2023-08-15T00:13:05.475Z,35.35
2023-08-15T00:14:10.903Z,35.51
2023-08-15T00:15:14.680Z,35.51
2023-08-15T00:16:18.409Z,35.52
2023-08-15T00:17:22.395Z,35.53
2023-08-15T00:18:26.285Z,35.57
2023-08-15T00:19:29.997Z,35.59
2023-08-15T00:20:33.873Z,35.56
2023-08-15T00:21:37.711Z,35.58
2023-08-15T00:22:41.477Z,35.57
2023-08-15T00:23:45.170Z,35.61
2023-08-15T00:24:48.813Z,35.62
2023-08-15T00:25:52.486Z,35.62
2023-08-15T00:26:56.383Z,35.65
2023-08-15T00:28:00.116Z,35.65
2023-08-15T00:29:03.891Z,35.39
2023-08-15T00:30:10.640Z,35.67
2023-08-15T00:31:14.462Z,35.69
2023-08-15T00:32:18.311Z,35.72
2023-08-15T00:33:21.986Z,35.75
2023-08-15T00:34:25.651Z,35.79
2023-08-15T00:35:29.338Z,35.81
2023-08-15T00:36:33.127Z,35.82
2023-08-15T00:37:37.138Z,35.84
2023-08-15T00:38:41.046Z,35.86
2023-08-15T00:39:44.775Z,35.85
2023-08-15T00:40:48.642Z,35.60
2023-08-15T00:41:52.401Z,35.85
2023-08-15T00:42:56.224Z,35.79
2023-08-15T00:43:59.921Z,35.88
2023-08-15T00:45:03.633Z,35.90
2023-08-15T00:46:09.702Z,35.87
2023-08-15T00:47:15.201Z,35.95
2023-08-15T00:48:19.293Z,35.98
2023-08-15T00:49:23.266Z,36.01
2023-08-15T00:50:27.320Z,36.03
2023-08-15T00:51:31.264Z,36.07
2023-08-15T00:52:35.366Z,36.09
2023-08-15T00:53:39.517Z,36.12
2023-08-15T00:54:45.131Z,36.14
2023-08-15T00:55:48.936Z,36.17
2023-08-15T00:56:52.770Z,36.18
2023-08-15T00:57:57.243Z,36.19
2023-08-15T00:59:02.549Z,36.22
2023-08-15T01:00:07.634Z,36.22
2023-08-15T01:01:19.313Z,36.22
2023-08-15T01:02:23.195Z,36.23
2023-08-15T01:03:27.238Z,36.22
2023-08-15T01:04:32.340Z,36.22
2023-08-15T01:05:36.838Z,36.23
2023-08-15T01:06:40.528Z,36.12
2023-08-15T01:07:45.092Z,36.24
2023-08-15T01:08:49.514Z,36.26
2023-08-15T01:09:53.240Z,36.01
2023-08-15T01:10:57.053Z,36.29
2023-08-15T01:12:13.689Z,36.29
2023-08-15T01:13:24.545Z,36.29
2023-08-15T01:14:32.634Z,36.26
2023-08-15T01:15:41.584Z,36.26
2023-08-15T01:16:49.874Z,36.27
2023-08-15T01:18:02.962Z,36.26
2023-08-15T01:19:12.487Z,36.32
2023-08-15T01:20:22.408Z,36.36
2023-08-15T01:21:31.205Z,36.29
2023-08-15T01:22:38.287Z,36.48
2023-08-15T01:23:44.860Z,36.39
2023-08-15T01:24:48.664Z,36.55
2023-08-15T01:25:56.248Z,36.53
2023-08-15T01:27:00.059Z,36.55
2023-08-15T01:28:03.982Z,36.57
2023-08-15T01:29:07.672Z,36.58
2023-08-15T01:30:13.285Z,36.61
2023-08-15T01:31:20.740Z,36.66
2023-08-15T01:32:41.364Z,36.59
2023-08-15T01:33:52.570Z,36.72
2023-08-15T01:35:02.792Z,36.75
2023-08-15T01:36:10.768Z,36.80
2023-08-15T01:37:23.870Z,36.85
2023-08-15T01:38:34.603Z,36.89
2023-08-15T01:39:43.344Z,36.89
2023-08-15T01:40:50.721Z,36.85
2023-08-15T01:41:55.538Z,36.86
2023-08-15T01:43:02.551Z,36.81
2023-08-15T01:44:08.372Z,36.90
2023-08-15T01:45:13.495Z,36.91
2023-08-15T01:46:17.353Z,36.91
2023-08-15T01:47:22.023Z,36.94
2023-08-15T01:48:26.174Z,36.96
2023-08-15T01:49:30.048Z,36.98
2023-08-15T01:50:33.792Z,37.01
2023-08-15T01:51:37.525Z,37.05
2023-08-15T01:52:41.182Z,37.08
2023-08-15T01:53:45.010Z,37.11
2023-08-15T01:54:50.490Z,37.13
2023-08-15T01:55:54.170Z,37.16
2023-08-15T01:56:57.832Z,37.15
2023-08-15T01:58:01.800Z,37.17
2023-08-15T01:59:05.725Z,37.11
2023-08-15T02:00:10.341Z,37.22
2023-08-15T02:01:14.079Z,37.24
2023-08-15T02:02:17.758Z,37.21
2023-08-15T02:03:21.501Z,37.26
2023-08-15T02:04:25.206Z,37.27
2023-08-15T02:05:29.019Z,37.29
2023-08-15T02:06:32.785Z,37.02
2023-08-15T02:07:36.502Z,37.33
2023-08-15T02:08:40.157Z,37.33
2023-08-15T02:09:43.894Z,37.33
2023-08-15T02:10:49.199Z,37.33
2023-08-15T02:11:53.049Z,37.34
2023-08-15T02:12:56.772Z,37.34
2023-08-15T02:14:01.362Z,37.35
2023-08-15T02:15:05.575Z,37.27
2023-08-15T02:16:09.416Z,37.31
2023-08-15T02:17:13.217Z,37.31
2023-08-15T02:18:16.941Z,37.33
2023-08-15T02:19:20.735Z,37.36
2023-08-15T02:20:24.455Z,37.38
2023-08-15T02:21:28.170Z,37.42
2023-08-15T02:22:33.005Z,37.44
2023-08-15T02:23:36.736Z,37.38
2023-08-15T02:24:40.437Z,37.40
2023-08-15T02:25:45.044Z,37.43
2023-08-15T02:26:50.408Z,37.47
2023-08-15T02:27:54.118Z,37.50
2023-08-15T02:28:57.855Z,37.51
2023-08-15T02:30:01.549Z,37.51
2023-08-15T02:31:05.264Z,37.52
2023-08-15T02:32:09.191Z,37.53
2023-08-15T02:33:12.893Z,37.54
2023-08-15T02:34:18.771Z,37.57
2023-08-15T02:35:22.462Z,37.53
2023-08-15T02:36:26.163Z,37.59
2023-08-15T02:37:29.839Z,37.60
2023-08-15T02:38:33.586Z,37.60
2023-08-15T02:39:37.307Z,37.61
2023-08-15T02:40:44.259Z,37.60
2023-08-15T02:41:52.508Z,37.64
2023-08-15T02:42:56.215Z,37.69
2023-08-15T02:43:59.858Z,37.69
2023-08-15T02:45:03.485Z,37.68
2023-08-15T02:46:07.266Z,37.64
2023-08-15T02:47:10.987Z,37.69
2023-08-15T02:48:14.722Z,37.73
2023-08-15T02:49:18.437Z,37.62
2023-08-15T02:50:22.121Z,37.76
2023-08-15T02:51:25.894Z,37.76
2023-08-15T02:52:29.547Z,37.85
2023-08-15T02:53:33.255Z,37.96
2023-08-15T02:54:37.037Z,38.02
2023-08-15T02:55:40.776Z,38.07
2023-08-15T02:56:44.476Z,38.11
2023-08-15T02:57:49.786Z,38.14
2023-08-15T02:58:53.423Z,38.14
2023-08-15T02:59:57.128Z,38.12
2023-08-15T03:01:00.887Z,38.17
2023-08-15T03:02:04.657Z,38.16
2023-08-15T03:03:08.507Z,38.09
2023-08-15T03:04:12.221Z,38.05
2023-08-15T03:05:15.967Z,38.03
2023-08-15T03:06:19.658Z,37.95
2023-08-15T03:07:23.617Z,37.94
2023-08-15T03:08:27.497Z,38.07
2023-08-15T03:09:31.157Z,37.98
2023-08-15T03:10:35.247Z,38.16
2023-08-15T03:11:38.996Z,38.16
2023-08-15T03:12:42.737Z,38.17
2023-08-15T03:13:47.998Z,38.19
2023-08-15T03:14:51.814Z,38.35
2023-08-15T03:15:56.296Z,38.35
2023-08-15T03:16:59.957Z,38.46
2023-08-15T03:18:03.667Z,38.49
2023-08-15T03:19:07.430Z,38.48
2023-08-15T03:20:11.813Z,38.50
2023-08-15T03:21:15.583Z,38.55
2023-08-15T03:22:19.306Z,38.58
2023-08-15T03:23:23.064Z,38.58
2023-08-15T03:24:29.271Z,38.50
2023-08-15T03:25:33.006Z,38.59
2023-08-15T03:26:36.707Z,38.59
2023-08-15T03:27:40.357Z,38.61
2023-08-15T03:28:44.101Z,38.62
2023-08-15T03:29:49.482Z,38.60
2023-08-15T03:30:53.383Z,38.59
2023-08-15T03:31:57.218Z,38.61
2023-08-15T03:33:01.243Z,38.63
2023-08-15T03:34:05.197Z,38.52
2023-08-15T03:35:09.819Z,38.69
2023-08-15T03:36:13.459Z,38.73
2023-08-15T03:37:17.162Z,38.72
2023-08-15T03:38:21.612Z,38.68
2023-08-15T03:39:25.437Z,38.71
2023-08-15T03:40:29.171Z,38.66
2023-08-15T03:41:32.826Z,38.72
2023-08-15T03:42:36.611Z,38.73
2023-08-15T03:43:40.279Z,38.78
2023-08-15T03:44:44.139Z,38.81
2023-08-15T03:45:49.555Z,38.80
2023-08-15T03:46:53.302Z,38.82
2023-08-15T03:47:57.040Z,38.85
2023-08-15T03:49:00.923Z,38.86
2023-08-15T03:50:04.889Z,38.85
2023-08-15T03:51:08.861Z,38.79
2023-08-15T03:52:12.534Z,38.84
2023-08-15T03:53:16.221Z,38.84
2023-08-15T03:54:19.881Z,38.83
2023-08-15T03:55:23.683Z,38.82
2023-08-15T03:56:27.330Z,38.79
2023-08-15T03:57:31.021Z,38.76
2023-08-15T03:58:34.757Z,38.74
2023-08-15T03:59:38.404Z,38.76
2023-08-15T04:00:42.080Z,38.82
2023-08-15T04:01:47.423Z,38.70
2023-08-15T04:02:51.730Z,38.46
2023-08-15T04:03:55.583Z,38.86
2023-08-15T04:04:59.306Z,38.93
2023-08-15T04:06:02.950Z,38.98
2023-08-15T04:07:06.704Z,38.99
2023-08-15T04:08:10.410Z,39.02
2023-08-15T04:09:14.069Z,39.00
2023-08-15T04:10:17.816Z,39.02
2023-08-15T04:11:21.482Z,39.05
2023-08-15T04:12:25.144Z,39.05
2023-08-15T04:13:28.845Z,38.95
2023-08-15T04:14:32.480Z,39.09
2023-08-15T04:15:36.330Z,39.10
2023-08-15T04:16:40.044Z,39.12
2023-08-15T04:17:45.498Z,39.16
2023-08-15T04:18:49.222Z,39.12
2023-08-15T04:19:53.060Z,39.19
2023-08-15T04:20:56.745Z,39.20
2023-08-15T04:22:00.432Z,39.16
2023-08-15T04:23:04.163Z,39.29
2023-08-15T04:24:08.499Z,39.05
2023-08-15T04:25:12.157Z,39.31
2023-08-15T04:26:15.875Z,39.37
2023-08-15T04:27:19.982Z,39.22
2023-08-15T04:28:23.934Z,39.44
2023-08-15T04:29:27.668Z,39.46
2023-08-15T04:30:31.700Z,39.49
2023-08-15T04:31:35.382Z,39.54
2023-08-15T04:32:39.228Z,39.56
2023-08-15T04:33:44.621Z,39.38
2023-08-15T04:34:49.899Z,39.57
2023-08-15T04:35:53.777Z,39.54
2023-08-15T04:36:57.588Z,39.41
2023-08-15T04:38:01.368Z,39.62
2023-08-15T04:39:05.164Z,39.43
2023-08-15T04:40:14.006Z,39.57
2023-08-15T04:41:17.751Z,39.57
2023-08-15T04:42:21.468Z,39.53
2023-08-15T04:43:25.127Z,39.52
2023-08-15T04:44:28.933Z,39.31
2023-08-15T04:45:32.644Z,39.48
2023-08-15T04:46:36.314Z,39.50
2023-08-15T04:47:39.990Z,39.48
2023-08-15T04:48:45.371Z,39.52
2023-08-15T04:49:50.256Z,39.55
2023-08-15T04:50:54.116Z,39.60
2023-08-15T04:51:58.217Z,39.59
2023-08-15T04:53:01.927Z,39.57
2023-08-15T04:54:05.716Z,39.57
2023-08-15T04:55:10.278Z,39.57
2023-08-15T04:56:13.966Z,39.59
2023-08-15T04:57:17.640Z,39.58
2023-08-15T04:58:21.338Z,39.59
2023-08-15T04:59:25.011Z,39.49
2023-08-15T05:00:28.692Z,39.59
2023-08-15T05:01:32.459Z,39.57
2023-08-15T05:02:36.299Z,39.64
2023-08-15T05:03:40.077Z,39.64
2023-08-15T05:04:45.428Z,39.77
2023-08-15T05:05:50.131Z,39.78
2023-08-15T05:06:53.965Z,39.82
2023-08-15T05:07:57.715Z,39.86
2023-08-15T05:09:01.470Z,39.82
2023-08-15T05:10:05.755Z,39.84
2023-08-15T05:11:09.568Z,39.81
2023-08-15T05:12:13.265Z,39.63
2023-08-15T05:13:16.934Z,39.80
2023-08-15T05:14:20.547Z,39.78
2023-08-15T05:15:24.215Z,39.82
2023-08-15T05:16:27.981Z,39.78
2023-08-15T05:17:32.311Z,39.73
2023-08-15T05:18:36.260Z,39.66
2023-08-15T05:19:39.923Z,39.60
2023-08-15T05:20:47.209Z,39.40
2023-08-15T05:21:50.898Z,39.62
2023-08-15T05:22:54.724Z,39.68
2023-08-15T05:23:58.449Z,39.53
2023-08-15T05:25:02.199Z,39.48
2023-08-15T05:26:06.040Z,39.76
2023-08-15T05:27:13.011Z,39.66
2023-08-15T05:28:16.712Z,39.70
2023-08-15T05:29:20.454Z,39.64
2023-08-15T05:30:24.173Z,39.59
2023-08-15T05:31:28.759Z,39.54
2023-08-15T05:32:32.446Z,39.53
2023-08-15T05:33:36.168Z,39.50
2023-08-15T05:34:39.901Z,39.53
2023-08-15T05:35:45.226Z,39.55
2023-08-15T05:36:48.872Z,39.56
2023-08-15T05:37:52.587Z,39.57
2023-08-15T05:38:56.356Z,39.56
2023-08-15T05:40:02.477Z,39.55
2023-08-15T05:41:08.020Z,39.56
2023-08-15T05:42:11.888Z,39.47
2023-08-15T05:43:15.721Z,39.47
2023-08-15T05:44:19.425Z,39.32
2023-08-15T05:45:23.207Z,39.43
2023-08-15T05:46:26.963Z,39.25
2023-08-15T05:47:30.739Z,39.48
2023-08-15T05:48:34.560Z,39.45
2023-08-15T05:49:38.261Z,39.41
2023-08-15T05:50:41.972Z,39.42
2023-08-15T05:51:47.457Z,39.41
2023-08-15T05:52:51.159Z,39.35
2023-08-15T05:53:54.842Z,39.45
2023-08-15T05:54:58.760Z,39.45
2023-08-15T05:56:02.495Z,39.38
2023-08-15T05:57:06.534Z,39.40
2023-08-15T05:58:10.472Z,39.35
2023-08-15T05:59:14.151Z,39.29
2023-08-15T06:00:17.966Z,39.29
2023-08-15T06:01:21.780Z,39.29
2023-08-15T06:02:25.550Z,39.26
2023-08-15T06:03:49.512Z,39.28
2023-08-15T06:04:52.911Z,39.31
2023-08-15T06:05:57.978Z,39.35
2023-08-15T06:07:03.316Z,39.21
2023-08-15T06:08:07.514Z,39.37
2023-08-15T06:09:11.263Z,39.50
2023-08-15T06:10:14.913Z,39.52
2023-08-15T06:11:18.594Z,39.57
2023-08-15T06:12:22.266Z,39.62
2023-08-15T06:13:25.916Z,39.65
2023-08-15T06:14:29.665Z,39.67
2023-08-15T06:15:33.397Z,39.70
2023-08-15T06:16:37.067Z,39.70
2023-08-15T06:17:40.798Z,39.70
2023-08-15T06:18:44.671Z,39.74
2023-08-15T06:19:48.484Z,39.78
2023-08-15T06:20:52.135Z,39.82
2023-08-15T06:21:55.821Z,39.85
2023-08-15T06:23:01.172Z,39.90
2023-08-15T06:24:05.206Z,39.96
2023-08-15T06:25:09.660Z,39.97
2023-08-15T06:26:13.349Z,39.99
2023-08-15T06:27:17.068Z,40.01
2023-08-15T06:28:20.754Z,40.04
2023-08-15T06:29:24.597Z,40.06
2023-08-15T06:30:28.836Z,40.03
2023-08-15T06:31:33.640Z,40.08
2023-08-15T06:32:37.388Z,40.10
2023-08-15T06:33:41.072Z,40.13
2023-08-15T06:34:44.751Z,40.14
2023-08-15T06:35:51.227Z,40.14
2023-08-15T06:36:55.634Z,40.17
2023-08-15T06:38:01.044Z,40.15
2023-08-15T06:39:05.038Z,40.14
2023-08-15T06:40:09.923Z,40.17
2023-08-15T06:41:13.967Z,40.16
2023-08-15T06:42:17.648Z,40.08
2023-08-15T06:43:21.338Z,40.13
2023-08-15T06:44:27.143Z,40.10
2023-08-15T06:45:31.292Z,39.96
2023-08-15T06:46:35.019Z,39.94
2023-08-15T06:47:38.721Z,40.11
2023-08-15T06:48:42.815Z,40.10
2023-08-15T06:49:46.496Z,40.10
2023-08-15T06:50:50.219Z,39.86
2023-08-15T06:51:53.953Z,40.03
2023-08-15T06:52:57.688Z,40.02
2023-08-15T06:54:03.039Z,40.01
2023-08-15T06:55:07.463Z,39.75
2023-08-15T06:56:11.174Z,40.00
2023-08-15T06:57:14.823Z,39.96
2023-08-15T06:58:18.729Z,39.78
2023-08-15T06:59:22.448Z,39.96
2023-08-15T07:00:26.205Z,39.97
2023-08-15T07:01:29.901Z,40.01
2023-08-15T07:02:33.612Z,40.01
2023-08-15T07:03:37.441Z,40.03
2023-08-15T07:04:41.282Z,40.02
2023-08-15T07:05:45.381Z,40.02
2023-08-15T07:06:49.060Z,39.96
2023-08-15T07:07:52.689Z,40.03
2023-08-15T07:08:56.401Z,40.06
2023-08-15T07:10:01.784Z,40.05
2023-08-15T07:11:06.456Z,40.10
2023-08-15T07:12:10.535Z,40.11
2023-08-15T07:13:14.228Z,40.12
2023-08-15T07:14:17.986Z,40.13
2023-08-15T07:15:21.657Z,40.15
2023-08-15T07:16:25.432Z,40.15
2023-08-15T07:17:29.209Z,40.16
2023-08-15T07:18:33.029Z,40.19
2023-08-15T07:19:36.779Z,40.17
2023-08-15T07:20:40.532Z,40.22
2023-08-15T07:21:44.203Z,40.09
2023-08-15T07:22:48.042Z,40.08
2023-08-15T07:23:51.758Z,40.26
2023-08-15T07:24:55.573Z,40.28
2023-08-15T07:26:00.897Z,40.30
2023-08-15T07:27:04.773Z,40.33
2023-08-15T07:28:08.580Z,40.33
2023-08-15T07:29:12.631Z,40.36
2023-08-15T07:30:16.418Z,40.36
2023-08-15T07:31:20.289Z,40.36
2023-08-15T07:32:24.395Z,40.10
2023-08-15T07:33:28.489Z,40.31
2023-08-15T07:34:32.213Z,40.30
2023-08-15T07:35:35.959Z,40.32
2023-08-15T07:36:39.800Z,40.31
2023-08-15T07:37:43.547Z,40.21
2023-08-15T07:38:47.186Z,40.32
2023-08-15T07:40:00.311Z,40.31
2023-08-15T07:41:05.679Z,40.35
2023-08-15T07:42:09.665Z,40.18
2023-08-15T07:43:13.443Z,40.35
2023-08-15T07:44:17.170Z,40.35
2023-08-15T07:45:21.009Z,40.37
2023-08-15T07:46:24.832Z,40.35
2023-08-15T07:47:28.791Z,40.34
2023-08-15T07:48:32.517Z,40.34
2023-08-15T07:49:39.147Z,40.35
2023-08-15T07:50:43.389Z,40.28
2023-08-15T07:51:47.153Z,40.28
2023-08-15T07:52:51.384Z,40.29
2023-08-15T07:53:55.177Z,40.14
2023-08-15T07:54:58.857Z,40.27
2023-08-15T07:56:04.368Z,40.26
2023-08-15T07:57:08.034Z,40.30
2023-08-15T07:58:11.733Z,40.28
2023-08-15T07:59:15.419Z,40.30
2023-08-15T08:00:19.482Z,40.29
2023-08-15T08:01:23.214Z,40.25
2023-08-15T08:02:27.093Z,40.25
2023-08-15T08:03:30.822Z,40.25
2023-08-15T08:04:34.462Z,40.25
2023-08-15T08:05:41.079Z,40.30
2023-08-15T08:06:44.823Z,40.28
2023-08-15T08:07:48.646Z,40.27
2023-08-15T08:08:52.396Z,40.25
2023-08-15T08:09:56.201Z,40.30
2023-08-15T08:10:59.843Z,40.32
2023-08-15T08:12:05.488Z,40.34
2023-08-15T08:13:09.255Z,40.34
2023-08-15T08:14:13.100Z,40.28
2023-08-15T08:15:16.799Z,40.37
2023-08-15T08:16:20.542Z,40.40
2023-08-15T08:17:24.544Z,40.37
2023-08-15T08:18:28.308Z,40.24
2023-08-15T08:19:31.965Z,40.33
2023-08-15T08:20:35.654Z,40.36
2023-08-15T08:21:39.349Z,40.42
2023-08-15T08:22:43.089Z,40.46
2023-08-15T08:23:46.810Z,40.45
2023-08-15T08:24:51.295Z,40.37
2023-08-15T08:25:55.043Z,40.28
2023-08-15T08:27:00.772Z,40.19
2023-08-15T08:28:06.746Z,40.09
2023-08-15T08:29:10.476Z,40.00
2023-08-15T08:30:16.090Z,39.94
2023-08-15T08:31:19.806Z,39.90
2023-08-15T08:32:23.775Z,39.84
2023-08-15T08:33:27.681Z,39.77
2023-08-15T08:34:31.417Z,39.70
2023-08-15T08:35:35.085Z,39.63
2023-08-15T08:36:38.803Z,39.55
2023-08-15T08:37:42.668Z,39.34
2023-08-15T08:38:46.358Z,39.37
2023-08-15T08:39:50.068Z,39.27
2023-08-15T08:40:56.169Z,39.17
2023-08-15T08:42:00.070Z,39.15
2023-08-15T08:43:05.518Z,39.08
2023-08-15T08:44:09.429Z,39.02
2023-08-15T08:45:13.829Z,39.00
2023-08-15T08:46:18.439Z,38.99
2023-08-15T08:47:23.289Z,38.97
2023-08-15T08:48:27.342Z,38.95
2023-08-15T08:49:32.199Z,38.86
2023-08-15T08:50:37.094Z,38.88
2023-08-15T08:51:41.514Z,38.88
2023-08-15T08:52:45.778Z,38.76
2023-08-15T08:53:49.499Z,38.77
2023-08-15T08:55:59.816Z,38.79
2023-08-15T08:57:04.574Z,38.78
2023-08-15T08:58:13.745Z,38.77
2023-08-15T08:59:22.762Z,38.72
2023-08-15T09:00:31.424Z,38.61
2023-08-15T09:01:37.286Z,38.65
2023-08-15T09:02:41.251Z,38.62
2023-08-15T09:03:45.067Z,38.61
2023-08-15T09:04:50.660Z,38.60
2023-08-15T09:05:54.402Z,38.63
2023-08-15T09:06:58.201Z,38.60
2023-08-15T09:08:02.861Z,38.60
2023-08-15T09:09:06.885Z,38.59
2023-08-15T09:10:11.144Z,38.57
2023-08-15T09:11:14.936Z,38.56
2023-08-15T09:12:33.769Z,38.54
2023-08-15T09:13:48.027Z,38.47
2023-08-15T09:14:51.749Z,38.47
2023-08-15T09:15:55.616Z,38.48
2023-08-15T09:16:59.306Z,38.30
2023-08-15T09:18:04.517Z,38.44
2023-08-15T09:19:08.279Z,38.39
2023-08-15T09:20:13.684Z,38.39
2023-08-15T09:21:17.363Z,38.23
2023-08-15T09:22:23.742Z,38.30
2023-08-15T09:23:27.483Z,38.27
2023-08-15T09:24:31.161Z,38.35
2023-08-15T09:25:36.538Z,38.25
2023-08-15T09:26:40.793Z,38.25
2023-08-15T09:27:45.422Z,38.20
2023-08-15T09:28:52.107Z,38.18
2023-08-15T09:29:55.775Z,38.19
2023-08-15T09:30:59.475Z,38.21
2023-08-15T09:32:03.290Z,38.18
2023-08-15T09:33:07.161Z,38.18
2023-08-15T09:34:12.031Z,38.16
2023-08-15T09:35:17.482Z,38.15
2023-08-15T09:36:21.229Z,38.13
2023-08-15T09:37:24.869Z,38.12
2023-08-15T09:38:30.120Z,38.11
2023-08-15T09:39:34.170Z,38.11
2023-08-15T09:40:37.896Z,38.08
2023-08-15T09:41:42.916Z,38.08
2023-08-15T09:42:47.116Z,38.09
2023-08-15T09:43:56.048Z,38.11
2023-08-15T09:45:00.124Z,38.07
2023-08-15T09:46:04.103Z,37.99
2023-08-15T09:47:09.057Z,37.91
2023-08-15T09:48:13.502Z,37.93
2023-08-15T09:49:17.863Z,37.94
2023-08-15T09:50:21.584Z,37.92
2023-08-15T09:51:28.009Z,37.90
2023-08-15T09:52:32.650Z,37.87
2023-08-15T09:53:37.460Z,37.57
2023-08-15T09:54:43.342Z,37.64
2023-08-15T09:55:47.114Z,37.90
2023-08-15T09:56:50.867Z,37.89
2023-08-15T09:57:54.540Z,37.88
2023-08-15T09:58:59.917Z,37.89
2023-08-15T10:00:03.905Z,37.83
2023-08-15T10:01:09.187Z,37.81
2023-08-15T10:02:22.210Z,37.71
2023-08-15T10:03:30.837Z,37.47
2023-08-15T10:04:36.434Z,37.68
2023-08-15T10:05:44.459Z,37.69
2023-08-15T10:06:48.500Z,37.68
2023-08-15T10:07:52.298Z,37.67
2023-08-15T10:08:57.098Z,37.52
2023-08-15T10:10:03.498Z,37.68
2023-08-15T10:11:09.453Z,37.67
2023-08-15T10:12:13.472Z,37.63
2023-08-15T10:13:19.018Z,37.60
2023-08-15T10:14:24.753Z,37.57
2023-08-15T10:15:30.376Z,37.52
2023-08-15T10:16:34.265Z,37.50
2023-08-15T10:17:39.091Z,37.47
2023-08-15T10:18:54.313Z,37.53
2023-08-15T10:20:03.838Z,37.51
2023-08-15T10:21:11.524Z,37.48
2023-08-15T10:22:19.325Z,37.48
2023-08-15T10:23:33.365Z,37.49
2023-08-15T10:24:37.092Z,37.38
2023-08-15T10:25:41.937Z,37.46
2023-08-15T10:26:46.475Z,37.42
2023-08-15T10:27:56.501Z,37.38
2023-08-15T10:29:00.194Z,37.40
2023-08-15T10:30:05.956Z,37.39
2023-08-15T10:31:10.170Z,37.39
2023-08-15T10:32:25.307Z,37.39
2023-08-15T10:33:31.856Z,37.35
2023-08-15T10:34:36.284Z,37.30
2023-08-15T10:35:43.280Z,37.28
2023-08-15T10:36:48.104Z,37.31
2023-08-15T10:37:51.893Z,37.32
2023-08-15T10:38:55.592Z,37.27
2023-08-15T10:40:10.224Z,37.29
2023-08-15T10:41:17.645Z,37.24
2023-08-15T10:42:22.207Z,37.19
2023-08-15T10:43:27.574Z,37.06
2023-08-15T10:44:35.408Z,37.02
2023-08-15T10:45:42.812Z,37.09
2023-08-15T10:46:46.637Z,37.01
2023-08-15T10:47:50.334Z,37.00
2023-08-15T10:49:03.838Z,36.94
2023-08-15T10:50:09.640Z,36.88
2023-08-15T10:51:20.913Z,36.76
2023-08-15T10:52:24.655Z,36.78
2023-08-15T10:53:28.748Z,36.76
2023-08-15T10:54:32.543Z,36.78
2023-08-15T10:55:38.322Z,36.76
2023-08-15T10:56:44.010Z,36.74
2023-08-15T10:57:49.957Z,36.62
2023-08-15T10:58:54.113Z,36.69
2023-08-15T10:59:58.878Z,36.64
2023-08-15T11:01:04.853Z,36.58
2023-08-15T11:02:08.772Z,36.32
2023-08-15T11:03:12.584Z,36.44
2023-08-15T11:04:17.698Z,36.42
2023-08-15T11:05:22.598Z,36.32
2023-08-15T11:06:26.584Z,36.26
2023-08-15T11:07:30.445Z,36.25
2023-08-15T11:08:34.179Z,36.20
2023-08-15T11:09:37.891Z,36.19
2023-08-15T11:10:51.286Z,36.19
2023-08-15T11:11:55.167Z,36.17
2023-08-15T11:12:59.075Z,36.16
2023-08-15T11:14:02.767Z,36.16
2023-08-15T11:15:11.356Z,36.17
2023-08-15T11:16:19.315Z,36.18
2023-08-15T11:17:23.497Z,36.14
2023-08-15T11:18:27.740Z,36.17
2023-08-15T11:19:31.580Z,36.15
2023-08-15T11:20:35.845Z,36.14
2023-08-15T11:21:39.581Z,36.12
2023-08-15T11:22:43.272Z,36.13
2023-08-15T11:23:49.368Z,36.12
2023-08-15T11:24:54.130Z,36.06
2023-08-15T11:26:03.514Z,35.95
2023-08-15T11:27:07.403Z,35.97
2023-08-15T11:28:11.122Z,35.95
2023-08-15T11:29:14.976Z,35.93
2023-08-15T11:30:19.166Z,35.92
2023-08-15T11:31:24.822Z,35.92
2023-08-15T11:32:29.450Z,35.93
2023-08-15T11:33:33.803Z,35.90
2023-08-15T11:34:40.088Z,35.85
2023-08-15T11:35:43.819Z,35.90
2023-08-15T11:36:47.803Z,35.91
2023-08-15T11:37:51.552Z,35.90
2023-08-15T11:38:55.336Z,35.94
2023-08-15T11:39:59.054Z,35.94
2023-08-15T11:41:04.905Z,35.65
2023-08-15T11:42:12.774Z,35.75
2023-08-15T11:43:16.776Z,35.85
2023-08-15T11:44:23.208Z,35.90
2023-08-15T11:45:28.521Z,35.90
2023-08-15T11:46:52.611Z,35.92
2023-08-15T11:48:00.090Z,35.75
2023-08-15T11:49:03.940Z,35.92
2023-08-15T11:50:11.447Z,35.84
2023-08-15T11:51:21.640Z,35.89
2023-08-15T11:52:25.651Z,35.91
2023-08-15T11:53:29.647Z,35.91
2023-08-15T11:54:33.561Z,35.91
2023-08-15T11:55:37.400Z,35.90
2023-08-15T11:56:50.666Z,35.93
2023-08-15T11:57:54.824Z,35.84
2023-08-15T11:59:05.819Z,35.90
2023-08-15T12:00:10.902Z,35.88
2023-08-15T12:01:21.736Z,35.90
2023-08-15T12:02:27.219Z,35.87
2023-08-15T12:03:32.100Z,35.87
2023-08-15T12:04:36.643Z,35.89
2023-08-15T12:05:40.550Z,35.87
2023-08-15T12:06:44.487Z,35.90
2023-08-15T12:07:49.533Z,35.83
2023-08-15T12:08:53.728Z,35.90
2023-08-15T12:09:58.336Z,35.84
2023-08-15T12:11:05.522Z,35.83
2023-08-15T12:12:09.559Z,35.84
2023-08-15T12:13:13.368Z,35.84
2023-08-15T12:14:23.654Z,35.86
2023-08-15T12:15:27.511Z,35.85
2023-08-15T12:16:31.360Z,35.87
2023-08-15T12:17:37.353Z,35.52
2023-08-15T12:18:41.098Z,35.85
2023-08-15T12:19:44.902Z,35.83
2023-08-15T12:20:48.617Z,35.83
2023-08-15T12:21:53.210Z,35.81
2023-08-15T12:22:56.972Z,35.82
2023-08-15T12:24:00.869Z,35.79
2023-08-15T12:25:05.019Z,35.78
2023-08-15T12:26:08.950Z,35.76
2023-08-15T12:27:12.645Z,35.76
2023-08-15T12:28:16.437Z,35.76
2023-08-15T12:29:20.150Z,35.76
2023-08-15T12:30:44.307Z,35.79
2023-08-15T12:31:50.807Z,35.77
2023-08-15T12:32:56.452Z,35.76
2023-08-15T12:34:00.233Z,35.77
2023-08-15T12:35:04.047Z,35.77
2023-08-15T12:36:08.178Z,35.71
2023-08-15T12:37:11.999Z,35.78
2023-08-15T12:38:15.753Z,35.77
2023-08-15T12:39:19.584Z,35.75
2023-08-15T12:41:33.120Z,35.74
2023-08-15T12:42:37.293Z,35.74
2023-08-15T12:43:41.019Z,35.72
2023-08-15T12:44:44.841Z,35.76
2023-08-15T12:45:48.618Z,35.72
2023-08-15T12:46:52.397Z,35.70
2023-08-15T12:47:57.843Z,35.66
2023-08-15T12:49:01.569Z,35.61
2023-08-15T12:50:05.505Z,35.55
2023-08-15T12:51:09.280Z,35.56
2023-08-15T12:52:12.994Z,35.57
2023-08-15T12:53:16.738Z,35.58
2023-08-15T12:54:20.602Z,35.60
2023-08-15T12:55:24.582Z,35.61
2023-08-15T12:56:28.290Z,35.60
2023-08-15T12:57:32.031Z,35.59
2023-08-15T12:58:35.751Z,35.49
2023-08-15T12:59:39.428Z,35.59
2023-08-15T13:00:43.336Z,35.56
2023-08-15T13:01:47.207Z,35.56
2023-08-15T13:02:51.309Z,35.55
2023-08-15T13:03:56.729Z,35.57
2023-08-15T13:05:01.943Z,35.59
2023-08-15T13:06:06.008Z,35.58
2023-08-15T13:07:09.658Z,35.56
2023-08-15T13:08:13.434Z,35.59
2023-08-15T13:09:17.282Z,35.58
2023-08-15T13:10:21.828Z,35.54
2023-08-15T13:11:25.900Z,35.36
2023-08-15T13:12:30.044Z,35.53
2023-08-15T13:13:34.395Z,35.55
2023-08-15T13:14:38.225Z,35.54
2023-08-15T13:15:41.946Z,35.47
2023-08-15T13:16:45.877Z,35.54
2023-08-15T13:17:49.795Z,35.57
2023-08-15T13:18:57.479Z,35.57
2023-08-15T13:20:01.577Z,35.59
2023-08-15T13:21:06.149Z,35.58
2023-08-15T13:22:09.846Z,35.59
2023-08-15T13:23:13.623Z,35.60
2023-08-15T13:24:17.375Z,35.59
2023-08-15T13:25:21.232Z,35.59
2023-08-15T13:26:25.178Z,35.59
2023-08-15T13:27:28.929Z,35.59
2023-08-15T13:28:32.623Z,35.57
2023-08-15T13:29:36.453Z,35.59
2023-08-15T13:30:40.404Z,35.59
2023-08-15T13:31:44.311Z,35.59
2023-08-15T13:32:48.037Z,35.60
2023-08-15T13:33:51.753Z,35.61
2023-08-15T13:34:57.064Z,35.60
2023-08-15T13:36:01.126Z,35.57
2023-08-15T13:37:04.793Z,35.58
2023-08-15T13:38:08.549Z,35.57
2023-08-15T13:39:12.262Z,35.56
2023-08-15T13:40:16.378Z,35.56
2023-08-15T13:41:20.120Z,35.56
2023-08-15T13:42:36.168Z,35.54
2023-08-15T13:43:43.328Z,35.56
2023-08-15T13:44:47.000Z,35.54
2023-08-15T13:45:51.756Z,35.38
2023-08-15T13:46:55.558Z,35.54
2023-08-15T13:47:59.732Z,35.55
2023-08-15T13:49:03.533Z,35.36
2023-08-15T13:50:10.165Z,35.53
2023-08-15T13:51:17.325Z,35.47
2023-08-15T13:52:21.232Z,35.54
2023-08-15T13:53:25.175Z,35.53
2023-08-15T13:54:28.961Z,35.53
2023-08-15T13:55:33.313Z,35.45